Impacts METAR Board
IDs:

KMEM - Memphis Intl, TN, US

Updated at: 1200 UTC 17 Dec 2018
Potential Impact None Slight Moderate High
Time 17/00Z 17/01Z 17/02Z 17/03Z 17/04Z 17/05Z 17/06Z 17/07Z 17/08Z 17/09Z 17/10Z 17/11Z 17/12Z
Temp51 49 46 45 46 45 43 41 38 39 36 35 36
Dewpt45 44 44 44 45 44 42 40 38 39 36 35 36
Altim30.25 30.25 30.25 30.25 30.24 30.24 30.24 30.21 30.22 30.21 30.21 30.21 30.24
VIS10 10 10 10 10 10 10 10 8 8 2 1 2
CIG-- -- -- -- 200 200 -- -- -- -- -- -- --
CoverSCTFEWCLRSCTBKNBKNSCTCLRCLRCLRFEWFEWFEW
FltCatVFRVFRVFRVFRVFRVFRVFRVFRVFRVFRIFRIFRIFR
WX--------------------BCFG BRBCFG BRBCFG BR
WDir250220220210000210001901900
WSpd3 3 3 4 0 0 0 3 0 0 4 3 0
WGst-- -- -- -- -- -- -- -- -- -- -- -- --
Raw hourly METARs
KMEM 162354Z 25003KT 10SM FEW160 SCT220 11/07 A3025 RMK AO2 SLP243 T01060072 10150 20106 53009
KMEM 170054Z 22003KT 10SM FEW220 09/07 A3025 RMK AO2 SLP244 T00940067
KMEM 170154Z 22003KT 10SM CLR 08/07 A3025 RMK AO2 SLP245 T00780067
KMEM 170254Z 21004KT 10SM FEW150 SCT200 07/07 A3025 RMK AO2 SLP243 T00720067 50000
KMEM 170354Z 00000KT 10SM FEW150 BKN200 08/07 A3024 RMK AO2 SLP241 T00780072
KMEM 170454Z 00000KT 10SM FEW150 BKN200 07/07 A3024 RMK AO2 SLP241 T00720067
KMEM 170554Z 00000KT 10SM FEW150 SCT200 06/06 A3024 RMK AO2 SLP240 T00610056 10111 20061 401500056 57003
KMEM 170654Z 21003KT 10SM CLR 05/04 A3021 RMK AO2 SLP231 T00500044
KMEM 170754Z 00000KT 8SM CLR 03/03 A3022 RMK AO2 SLP234 T00330033
KMEM 170854Z 00000KT 8SM R36L/1200V1800FT CLR 04/04 A3021 RMK AO2 SLP231 T00390039 56008
KMEM 170954Z COR 19004KT 2SM R36L/2600V5000FT BCFG BR FEW002 02/02 A3021 RMK AO2 SFC VIS 3 SLP231 T00220022
KMEM 171054Z 19003KT 1SM R36L/5500VP6000FT BCFG BR FEW002 02/02 A3021 RMK AO2 TWR VIS 2 SLP232 T00170017
KMEM 171154Z 00000KT 2SM BCFG BR FEW002 02/02 A3024 RMK AO2 SLP239 T00220022 10050 20017 53007



Page loaded:  12:00 UTC  |   04:00 AM Pacific  |   05:00 AM Mountain  |   06:00 AM Central  |   07:00 AM Eastern

 

ADVISORIES

FORECASTS

FORECASTS

OBSERVATIONS

USER TOOLS

ABOUT US